Time;durP1;ratioP1;P1;durP2;ratioP2;P2;SDS_P1;SDS_P2;PMS_P1;PMS_P2;Temp;Humidity;BMP_temperature;BMP_pressure;BME280_temperature;BME280_humidity;BME280_pressure;Samples;Min_cycle;Max_cycle;Signal;HPM_P1;HPM_P2
2021/08/01 00:00:16;;;;;;;3.67;2.47;;;;;;;37.87;18.91;94269.94;5074021;28;20051;-50
2021/08/01 00:02:43;;;;;;;3.67;2.97;;;;;;;37.96;19.63;94258.97;5074603;28;20051;-49
2021/08/01 00:05:11;;;;;;;4.95;2.78;;;;;;;37.87;19.74;94253.59;5074099;28;20064;-51
2021/08/01 00:07:39;;;;;;;3.25;2.60;;;;;;;38.08;20.02;94261.94;5074528;28;20048;-51
2021/08/01 00:10:08;;;;;;;4.20;2.63;;;;;;;38.01;20.13;94263.03;5073130;28;20060;-50
2021/08/01 00:12:36;;;;;;;5.00;2.80;;;;;;;37.84;20.53;94270.88;5074947;28;20041;-50
2021/08/01 00:15:03;;;;;;;3.90;2.50;;;;;;;37.93;20.78;94264.59;5077872;28;20472;-48
2021/08/01 00:17:30;;;;;;;3.53;2.80;;;;;;;37.86;21.50;94262.22;5078151;28;20052;-49
2021/08/01 00:19:57;;;;;;;4.35;2.85;;;;;;;37.97;20.66;94252.28;5078298;28;20055;-50
2021/08/01 00:22:24;;;;;;;5.22;3.17;;;;;;;37.52;21.15;94260.75;5059319;28;20040;-48
2021/08/01 00:24:52;;;;;;;3.95;2.88;;;;;;;37.58;21.16;94248.00;5060461;28;20060;-48
2021/08/01 00:27:19;;;;;;;3.97;2.80;;;;;;;37.64;20.84;94257.78;5077976;28;20045;-55
2021/08/01 00:29:46;;;;;;;3.58;2.65;;;;;;;37.73;20.99;94265.19;5077084;28;20055;-51
2021/08/01 00:32:13;;;;;;;5.13;2.80;;;;;;;37.81;21.32;94260.91;5078104;28;20380;-52
2021/08/01 00:34:40;;;;;;;5.40;3.10;;;;;;;37.61;21.29;94260.69;5075796;28;20040;-49
2021/08/01 00:37:07;;;;;;;3.35;2.72;;;;;;;37.16;22.02;94259.66;5077503;28;20358;-48
2021/08/01 00:39:34;;;;;;;6.25;3.20;;;;;;;37.56;21.18;94274.97;5077300;28;20376;-51
2021/08/01 00:42:01;;;;;;;5.15;3.08;;;;;;;37.69;21.21;94275.47;5077980;28;20056;-51
2021/08/01 00:44:28;;;;;;;2.97;2.72;;;;;;;37.49;21.58;94272.59;5076747;28;20358;-51
2021/08/01 00:46:56;;;;;;;5.72;2.88;;;;;;;37.51;21.55;94267.44;5076689;28;20063;-55
2021/08/01 00:49:23;;;;;;;4.10;3.00;;;;;;;37.72;21.05;94266.41;5076971;28;20466;-55
2021/08/01 00:51:50;;;;;;;6.35;3.30;;;;;;;37.56;21.84;94277.69;5060334;28;20052;-51
2021/08/01 00:54:17;;;;;;;3.65;2.97;;;;;;;37.60;22.04;94286.44;5072509;28;20071;-51
2021/08/01 00:56:45;;;;;;;4.63;3.20;;;;;;;37.62;21.69;94294.91;5046743;28;20045;-51
2021/08/01 00:59:12;;;;;;;4.97;4.05;;;;;;;37.13;21.79;94276.94;5057790;28;20053;-49
2021/08/01 01:01:47;;;;;;;6.70;3.20;;;;;;;37.46;21.74;94278.94;5057776;28;20048;-50
2021/08/01 01:04:29;;;;;;;3.90;3.30;;;;;;;37.50;22.18;94288.47;5027008;28;20462;-49
2021/08/01 01:07:16;;;;;;;6.40;3.67;;;;;;;37.18;22.01;94291.91;5071668;28;20053;-51
2021/08/01 01:10:06;;;;;;;4.82;3.72;;;;;;;37.27;22.37;94283.75;5057087;28;20060;-51
2021/08/01 01:12:48;;;;;;;6.82;4.30;;;;;;;37.27;22.42;94283.75;5056480;28;20051;-51
2021/08/01 01:15:20;;;;;;;8.25;4.05;;;;;;;37.06;22.66;94290.91;5050713;28;20048;-52
2021/08/01 01:17:50;;;;;;;7.45;4.18;;;;;;;37.06;22.79;94280.00;5077553;28;20505;-50
2021/08/01 01:20:58;;;;;;;6.47;4.20;;;;;;;37.29;22.73;94292.97;5043501;28;20048;-50
2021/08/01 01:23:31;;;;;;;5.28;4.35;;;;;;;37.25;23.06;94284.19;5076868;28;20047;-49
2021/08/01 01:26:43;;;;;;;6.88;4.28;;;;;;;37.10;23.52;94286.03;5060266;28;20413;-47
2021/08/01 01:29:38;;;;;;;5.30;4.10;;;;;;;36.86;23.63;94279.75;5077249;28;20052;-49
2021/08/01 01:32:11;;;;;;;4.47;3.80;;;;;;;37.02;23.14;94290.31;5075844;28;20048;-52
2021/08/01 01:34:41;;;;;;;5.22;3.70;;;;;;;37.02;22.81;94284.84;5058990;28;20060;-51
2021/08/01 01:37:11;;;;;;;7.03;4.38;;;;;;;35.23;25.43;94282.56;5051314;28;20048;-52
2021/08/01 01:39:41;;;;;;;4.78;3.65;;;;;;;36.58;23.51;94285.22;5057179;28;20047;-50
2021/08/01 01:42:13;;;;;;;7.82;3.85;;;;;;;36.62;23.68;94280.38;5056821;28;20055;-52
2021/08/01 01:45:01;;;;;;;5.63;3.38;;;;;;;36.71;23.13;94283.09;5047392;28;20063;-49
2021/08/01 01:47:33;;;;;;;6.05;3.47;;;;;;;36.84;22.78;94285.66;5040231;28;20470;-51
2021/08/01 01:50:02;;;;;;;7.13;3.85;;;;;;;37.09;22.70;94284.53;5039365;28;20049;-51
2021/08/01 01:52:30;;;;;;;4.47;3.70;;;;;;;36.93;23.36;94298.47;5034918;28;20071;-51
2021/08/01 01:55:11;;;;;;;4.25;3.90;;;;;;;36.92;23.63;94296.97;5043941;28;20052;-50
2021/08/01 01:57:43;;;;;;;5.30;4.15;;;;;;;35.29;25.55;94299.78;5073034;28;20049;-52
2021/08/01 02:00:12;;;;;;;8.65;4.20;;;;;;;36.38;24.07;94312.91;5038927;28;20044;-49
2021/08/01 02:02:45;;;;;;;10.02;5.35;;;;;;;36.61;23.83;94306.09;5056180;28;20354;-48
2021/08/01 02:05:22;;;;;;;10.38;5.57;;;;;;;36.61;24.16;94306.09;5046147;28;20048;-49
2021/08/01 02:08:22;;;;;;;7.88;5.55;;;;;;;36.70;24.62;94294.44;5055530;28;20053;-50
2021/08/01 02:11:10;;;;;;;7.57;5.57;;;;;;;36.66;24.31;94285.66;5055571;28;20040;-58
2021/08/01 02:14:06;;;;;;;9.48;5.43;;;;;;;36.49;24.63;94293.41;5055317;28;20041;-51
2021/08/01 02:16:35;;;;;;;7.47;5.65;;;;;;;36.74;24.20;94297.75;5050120;28;20045;-51
2021/08/01 02:19:08;;;;;;;9.75;7.07;;;;;;;36.38;24.68;94301.25;5022384;28;20057;-51
2021/08/01 02:21:39;;;;;;;9.07;6.35;;;;;;;36.53;24.68;94304.91;5026812;28;20044;-49
2021/08/01 02:24:09;;;;;;;9.15;6.15;;;;;;;36.75;24.24;94300.03;5058219;28;20054;-58
2021/08/01 02:26:41;;;;;;;9.43;5.55;;;;;;;36.68;24.73;94303.03;5075800;28;20045;-51
2021/08/01 02:29:10;;;;;;;8.82;5.93;;;;;;;36.85;24.26;94302.75;5058491;28;20075;-49
2021/08/01 02:31:37;;;;;;;9.68;5.93;;;;;;;36.81;24.24;94307.59;5058438;28;20041;-48
2021/08/01 02:34:05;;;;;;;10.45;5.53;;;;;;;36.79;24.55;94304.59;5058266;28;20350;-49
2021/08/01 02:36:33;;;;;;;8.63;5.47;;;;;;;36.69;24.38;94299.09;5040857;28;20060;-51
2021/08/01 02:39:02;;;;;;;10.75;5.75;;;;;;;36.64;24.52;94299.72;5058482;28;20053;-50
2021/08/01 02:41:41;;;;;;;8.52;5.18;;;;;;;36.82;24.43;94306.38;5057636;28;20048;-48
2021/08/01 02:44:21;;;;;;;7.10;4.90;;;;;;;36.75;24.99;94300.03;5041474;28;20051;-51
2021/08/01 02:46:49;;;;;;;7.03;5.50;;;;;;;36.68;24.87;94299.56;5054682;28;20060;-52
2021/08/01 02:49:28;;;;;;;6.68;5.32;;;;;;;36.71;24.72;94302.16;5054607;28;20048;-51
2021/08/01 02:51:58;;;;;;;;;;;;;;;36.44;25.02;94297.50;5054224;28;20486;-50
2021/08/01 02:54:27;;;;;;;8.50;5.45;;;;;;;36.45;24.96;94303.69;5055862;28;19936;-49
2021/08/01 02:57:00;;;;;;;10.77;5.43;;;;;;;36.75;24.64;94313.66;5041294;28;20056;-47
2021/08/01 02:59:28;;;;;;;7.65;5.35;;;;;;;36.56;24.60;94309.41;5057806;28;20048;-50
2021/08/01 03:01:57;;;;;;;10.98;5.80;;;;;;;36.60;24.87;94312.75;5057886;28;20051;-49
2021/08/01 03:04:27;;;;;;;6.20;5.22;;;;;;;36.58;24.62;94315.16;5040769;28;20040;-49
2021/08/01 03:06:56;;;;;;;11.13;5.85;;;;;;;36.54;24.79;94317.28;5075026;28;20386;-48
2021/08/01 03:09:25;;;;;;;8.45;5.38;;;;;;;36.42;24.61;94315.47;5025042;28;20044;-49
2021/08/01 03:11:52;;;;;;;9.18;5.65;;;;;;;36.55;24.81;94316.06;5075189;28;20358;-48
2021/08/01 03:14:19;;;;;;;10.15;5.93;;;;;;;36.54;24.92;94317.28;5056030;28;20060;-53
2021/08/01 03:16:46;;;;;;;10.52;6.00;;;;;;;36.35;24.91;94321.97;5053793;28;20049;-49
2021/08/01 03:19:13;;;;;;;6.75;5.35;;;;;;;36.44;24.53;94315.78;5055054;28;20045;-52
2021/08/01 03:21:43;;;;;;;8.65;5.72;;;;;;;36.58;24.46;94322.56;5054860;28;20052;-53
2021/08/01 03:24:24;;;;;;;10.50;6.00;;;;;;;36.58;24.82;94323.34;5054030;28;20056;-48
2021/08/01 03:26:56;;;;;;;8.13;5.65;;;;;;;36.48;24.78;94323.81;5057124;28;20768;-50
2021/08/01 03:29:24;;;;;;;7.50;5.32;;;;;;;36.28;24.82;94337.81;5057194;28;20044;-51
2021/08/01 03:31:52;;;;;;;8.02;5.20;;;;;;;36.34;24.93;94336.03;5074031;28;20052;-51
2021/08/01 03:34:22;;;;;;;8.43;5.57;;;;;;;36.57;24.73;94340.88;5056178;28;20395;-49
2021/08/01 03:36:50;;;;;;;7.07;5.20;;;;;;;36.41;24.78;94346.63;5056979;28;20387;-48
2021/08/01 03:39:21;;;;;;;8.63;5.53;;;;;;;36.27;24.95;94339.03;5073847;28;20055;-49
2021/08/01 03:42:01;;;;;;;9.23;6.03;;;;;;;36.23;25.40;94335.72;5074699;28;20052;-50
2021/08/01 03:44:32;;;;;;;8.00;5.53;;;;;;;36.18;25.27;94331.63;5073821;28;20052;-54
2021/08/01 03:46:59;;;;;;;8.00;5.25;;;;;;;36.36;24.91;94328.19;5066934;28;20056;-49
2021/08/01 03:49:26;;;;;;;9.40;5.63;;;;;;;36.43;24.60;94333.31;5054421;28;20041;-49
2021/08/01 03:51:53;;;;;;;9.10;5.63;;;;;;;36.14;25.35;94336.44;5054421;28;20374;-51
2021/08/01 03:54:20;;;;;;;7.75;5.70;;;;;;;36.27;24.94;94336.31;5054536;28;20041;-50
2021/08/01 03:56:47;;;;;;;7.60;5.40;;;;;;;36.40;25.08;94323.34;5073637;28;20048;-51
2021/08/01 03:59:14;;;;;;;8.85;6.13;;;;;;;36.46;24.63;94335.16;5074518;28;20476;-48
2021/08/01 04:01:41;;;;;;;8.68;5.50;;;;;;;36.32;24.85;94333.78;5073336;28;20048;-51
2021/08/01 04:04:09;;;;;;;8.65;5.55;;;;;;;36.30;24.92;94341.63;5072990;28;20040;-50
2021/08/01 04:06:36;;;;;;;7.95;5.45;;;;;;;36.40;24.75;94334.97;5073377;28;20044;-48
2021/08/01 04:09:04;;;;;;;8.45;5.28;;;;;;;36.37;25.00;94340.56;5074503;28;20048;-49
2021/08/01 04:11:33;;;;;;;9.25;5.10;;;;;;;36.58;24.97;94336.94;5073656;28;20041;-50
2021/08/01 04:14:00;;;;;;;7.93;5.57;;;;;;;36.38;25.17;94336.63;5074370;28;20066;-49
2021/08/01 04:16:27;;;;;;;6.47;5.00;;;;;;;36.47;25.44;94344.06;5072395;28;20059;-50
2021/08/01 04:18:54;;;;;;;7.50;5.43;;;;;;;36.42;25.21;94340.72;5073579;28;20045;-49
2021/08/01 04:21:21;;;;;;;7.53;5.40;;;;;;;36.39;25.81;94338.16;5073045;28;20564;-50
2021/08/01 04:23:48;;;;;;;9.10;5.38;;;;;;;36.44;25.67;94329.41;5073961;28;20363;-51
2021/08/01 04:26:15;;;;;;;9.38;5.53;;;;;;;36.38;25.80;94336.63;5073831;28;20055;-53
2021/08/01 04:28:43;;;;;;;6.05;5.10;;;;;;;36.57;26.02;94334.69;5054301;28;20052;-48
2021/08/01 04:31:10;;;;;;;8.65;5.50;;;;;;;36.38;25.87;94337.41;5054199;28;20044;-48
2021/08/01 04:33:37;;;;;;;9.45;5.68;;;;;;;36.61;25.50;94341.47;5054186;28;20474;-52
2021/08/01 04:36:04;;;;;;;5.80;4.82;;;;;;;36.60;25.76;94342.69;5053802;28;20443;-47
2021/08/01 04:38:31;;;;;;;8.00;5.50;;;;;;;36.28;26.01;94343.28;5053905;28;20053;-50
2021/08/01 04:40:58;;;;;;;6.38;5.13;;;;;;;36.40;26.01;94347.81;5054234;28;20466;-54
2021/08/01 04:43:25;;;;;;;6.07;5.43;;;;;;;36.42;25.22;94346.16;5053840;28;20041;-50
2021/08/01 04:45:52;;;;;;;8.07;5.30;;;;;;;36.47;25.14;94344.81;5063947;28;20056;-49
2021/08/01 04:48:19;;;;;;;9.13;5.28;;;;;;;36.57;24.57;94359.94;5072652;28;20044;-51
2021/08/01 04:50:47;;;;;;;6.43;4.60;;;;;;;36.44;24.76;94356.63;5074184;28;20040;-50
2021/08/01 04:53:14;;;;;;;5.53;4.70;;;;;;;36.56;24.66;94358.44;5073562;28;20367;-48
2021/08/01 04:55:41;;;;;;;6.60;4.38;;;;;;;36.66;24.15;94367.34;5073824;28;20481;-46
2021/08/01 04:58:08;;;;;;;5.57;5.00;;;;;;;36.85;23.70;94368.13;5058369;28;20052;-50
2021/08/01 05:00:35;;;;;;;4.65;4.15;;;;;;;36.80;23.68;94374.19;5057156;28;20060;-51
2021/08/01 05:03:03;;;;;;;7.68;4.68;;;;;;;36.86;23.57;94372.34;5056757;28;20048;-46
2021/08/01 05:05:35;;;;;;;5.18;4.20;;;;;;;36.96;23.34;94363.72;5057109;28;20064;-48
2021/08/01 05:08:03;;;;;;;8.13;4.72;;;;;;;37.14;23.26;94368.38;5057016;28;20056;-47
2021/08/01 05:10:31;;;;;;;4.80;4.10;;;;;;;37.26;23.40;94359.28;5073140;28;20056;-51
2021/08/01 05:12:58;;;;;;;4.88;3.80;;;;;;;37.21;22.69;94354.41;5057404;28;20044;-52
2021/08/01 05:15:26;;;;;;;7.28;4.38;;;;;;;37.02;23.24;94355.69;5053168;28;20443;-49
2021/08/01 05:17:53;;;;;;;5.13;4.35;;;;;;;37.40;22.89;94362.56;5038691;28;20048;-48
2021/08/01 05:20:20;;;;;;;5.97;4.50;;;;;;;37.25;23.24;94359.75;5057385;28;20056;-47
2021/08/01 05:22:47;;;;;;;5.93;4.18;;;;;;;37.43;23.16;94361.63;5056929;28;20044;-48
2021/08/01 05:25:14;;;;;;;6.40;4.10;;;;;;;37.32;23.67;94362.91;5060751;28;20055;-47
2021/08/01 05:27:41;;;;;;;4.97;4.05;;;;;;;37.69;23.27;94370.94;5076518;28;20041;-52
2021/08/01 05:30:09;;;;;;;5.13;4.30;;;;;;;37.49;23.12;94370.72;5077215;28;20052;-50
2021/08/01 05:32:36;;;;;;;4.72;4.25;;;;;;;37.53;23.52;94372.06;5065799;28;20048;-48
2021/08/01 05:35:04;;;;;;;5.28;4.00;;;;;;;37.73;22.73;94379.72;5056813;28;20486;-49
2021/08/01 05:37:31;;;;;;;5.10;4.43;;;;;;;37.82;22.96;94374.25;5056551;28;20048;-49
2021/08/01 05:39:58;;;;;;;7.13;4.97;;;;;;;37.83;22.69;94383.19;5057098;28;20045;-50
2021/08/01 05:42:25;;;;;;;4.97;4.40;;;;;;;37.91;22.50;94392.53;5057158;28;20052;-48
2021/08/01 05:44:52;;;;;;;5.18;4.60;;;;;;;37.99;22.76;94390.19;5056410;28;20460;-49
2021/08/01 05:47:20;;;;;;;5.88;4.55;;;;;;;38.00;22.71;94386.25;5075746;28;20052;-52
2021/08/01 05:49:47;;;;;;;7.60;4.50;;;;;;;38.09;22.88;94386.97;5075540;28;20056;-51
2021/08/01 05:52:16;;;;;;;6.38;4.63;;;;;;;38.20;22.64;94389.22;5076381;28;20059;-51
2021/08/01 05:54:44;;;;;;;6.33;4.47;;;;;;;38.37;22.80;94376.66;5075737;28;20040;-47
2021/08/01 05:57:11;;;;;;;6.57;4.68;;;;;;;38.55;22.10;94375.78;5056137;28;20053;-50
2021/08/01 05:59:38;;;;;;;10.18;4.53;;;;;;;38.31;22.80;94373.06;5055924;28;20048;-53
2021/08/01 06:02:05;;;;;;;5.93;4.88;;;;;;;38.60;22.52;94371.66;5056557;28;20347;-48
2021/08/01 06:04:33;;;;;;;5.82;4.55;;;;;;;38.66;21.90;94365.09;5055724;28;20060;-51
2021/08/01 06:07:00;;;;;;;7.55;4.63;;;;;;;38.72;21.97;94368.66;5056056;28;20088;-48
2021/08/01 06:09:27;;;;;;;6.90;5.03;;;;;;;38.73;21.84;94367.44;5055516;28;20045;-50
2021/08/01 06:11:54;;;;;;;10.27;4.63;;;;;;;38.83;21.82;94368.91;5055352;28;20063;-54
2021/08/01 06:14:21;;;;;;;6.15;4.95;;;;;;;38.77;22.38;94375.47;5056447;28;20051;-52
2021/08/01 06:16:48;;;;;;;7.60;5.15;;;;;;;38.77;22.42;94375.47;5070925;28;20052;-51
2021/08/01 06:19:15;;;;;;;6.68;4.95;;;;;;;39.14;21.62;94371.19;5060662;28;20041;-53
2021/08/01 06:21:42;;;;;;;7.88;5.40;;;;;;;38.84;22.40;94364.94;5061759;28;20435;-48
2021/08/01 06:24:09;;;;;;;6.88;5.38;;;;;;;38.93;22.04;94366.81;5076087;28;20041;-50
2021/08/01 06:26:37;;;;;;;6.50;5.20;;;;;;;39.08;21.46;94356.69;5074901;28;20053;-49
2021/08/01 06:29:04;;;;;;;8.95;5.53;;;;;;;39.39;21.37;94361.66;5055957;28;20064;-51
2021/08/01 06:31:31;;;;;;;8.52;5.32;;;;;;;39.41;20.91;94361.94;5055877;28;20049;-49
2021/08/01 06:33:58;;;;;;;6.47;5.03;;;;;;;39.15;21.29;94361.78;5055505;28;20048;-47
2021/08/01 06:36:25;;;;;;;8.80;4.90;;;;;;;39.59;20.45;94352.81;5055567;28;20041;-48
2021/08/01 06:38:53;;;;;;;6.95;5.20;;;;;;;39.59;20.38;94344.59;5055720;28;20048;-49
2021/08/01 06:41:20;;;;;;;8.43;5.75;;;;;;;38.55;21.82;94353.94;5062698;28;20045;-51
2021/08/01 06:43:47;;;;;;;12.00;5.88;;;;;;;37.68;22.23;94350.31;5060993;28;20363;-48
2021/08/01 06:46:14;;;;;;;6.25;5.35;;;;;;;38.26;21.33;94349.16;5070231;28;20060;-50
2021/08/01 06:48:41;;;;;;;8.10;5.47;;;;;;;39.44;20.63;94346.56;5059373;28;20444;-49
2021/08/01 06:51:08;;;;;;;7.07;5.65;;;;;;;39.25;21.50;94342.53;5056183;28;20052;-52
2021/08/01 06:53:36;;;;;;;10.15;6.50;;;;;;;38.95;22.40;94347.97;5074438;28;20040;-52
2021/08/01 06:56:06;;;;;;;8.38;6.47;;;;;;;38.80;22.63;94342.53;5067710;28;20351;-63
2021/08/01 06:58:34;;;;;;;6.88;6.07;;;;;;;39.63;21.97;94347.88;5059898;28;20060;-52
2021/08/01 07:01:02;;;;;;;8.75;6.25;;;;;;;39.42;22.44;94352.50;5094071;28;20036;-56
2021/08/01 07:03:29;;;;;;;8.40;6.40;;;;;;;39.40;22.31;94344.03;5059371;28;20055;-60
2021/08/01 07:05:57;;;;;;;7.75;6.13;;;;;;;39.47;22.16;94348.34;5059206;28;20042;-46
2021/08/01 07:08:24;;;;;;;9.02;6.40;;;;;;;39.61;21.93;94353.09;5074960;28;20447;-57
2021/08/01 07:10:51;;;;;;;6.70;5.90;;;;;;;39.75;21.74;94346.81;5074598;28;20366;-58
2021/08/01 07:13:18;;;;;;;9.15;5.78;;;;;;;39.70;21.60;94355.69;5070431;28;20052;-46
2021/08/01 07:15:45;;;;;;;9.95;6.20;;;;;;;40.18;20.91;94349.91;5056304;28;20044;-58
2021/08/01 07:18:12;;;;;;;8.10;5.78;;;;;;;40.33;20.54;94356.03;5054782;28;20045;-46
2021/08/01 07:20:39;;;;;;;7.75;6.03;;;;;;;40.86;19.86;94351.44;5055151;28;20049;-67
2021/08/01 07:23:09;;;;;;;9.35;6.20;;;;;;;40.86;20.46;94357.72;5054816;28;20052;-56
2021/08/01 07:25:37;;;;;;;8.88;6.00;;;;;;;40.78;20.04;94361.31;5056546;28;20056;-49
2021/08/01 07:28:04;;;;;;;7.70;5.63;;;;;;;40.77;20.33;94359.81;5074826;28;20052;-56
2021/08/01 07:30:31;;;;;;;8.35;6.15;;;;;;;40.78;20.37;94358.56;5075052;28;20083;-66
2021/08/01 07:32:59;;;;;;;11.57;6.30;;;;;;;40.64;20.24;94369.16;5074853;28;20063;-57
2021/08/01 07:35:26;;;;;;;9.27;6.53;;;;;;;40.55;20.25;94366.53;5068779;28;20558;-45
2021/08/01 07:37:53;;;;;;;8.90;5.80;;;;;;;40.78;20.16;94367.53;5061297;28;20517;-65
2021/08/01 07:40:20;;;;;;;9.75;6.18;;;;;;;40.82;20.46;94370.84;5059174;28;20056;-54
2021/08/01 07:42:48;;;;;;;9.50;6.13;;;;;;;41.03;19.74;94370.81;5054389;28;20461;-56
2021/08/01 07:45:34;;;;;;;8.65;6.22;;;;;;;41.02;19.98;94361.81;5062727;28;20059;-60
2021/08/01 07:48:01;;;;;;;7.05;6.25;;;;;;;41.21;19.59;94367.75;5062726;28;20052;-61
2021/08/01 07:50:29;;;;;;;7.20;6.00;;;;;;;41.41;19.69;94362.22;5049068;28;20052;-68
2021/08/01 07:52:57;;;;;;;8.10;5.57;;;;;;;41.69;18.65;94364.44;5060424;28;20048;-54
2021/08/01 07:55:24;;;;;;;16.17;6.95;;;;;;;41.51;19.15;94358.03;5054669;28;20064;-58
2021/08/01 07:57:51;;;;;;;6.88;5.50;;;;;;;41.56;19.18;94362.06;5067247;28;20459;-65
2021/08/01 08:00:19;;;;;;;11.48;6.57;;;;;;;41.69;18.94;94359.69;5054598;28;20049;-67
2021/08/01 08:02:46;;;;;;;9.77;6.13;;;;;;;41.92;18.85;94355.09;5053293;28;20049;-61
2021/08/01 08:05:13;;;;;;;9.15;5.95;;;;;;;41.68;18.95;94352.69;5054001;28;20048;-60
2021/08/01 08:07:40;;;;;;;6.97;5.90;;;;;;;41.64;18.89;94345.88;5054883;28;20051;-64
2021/08/01 08:10:09;;;;;;;8.23;5.82;;;;;;;41.77;18.75;94343.53;5051921;28;20345;-63
2021/08/01 08:12:36;;;;;;;6.93;6.05;;;;;;;41.77;18.91;94349.00;5054050;28;20041;-65
2021/08/01 08:15:06;;;;;;;8.10;6.00;;;;;;;41.92;19.11;94338.63;5053862;28;20463;-61
2021/08/01 08:17:33;;;;;;;8.85;6.25;;;;;;;42.16;18.72;94336.28;5070592;28;20048;-57
2021/08/01 08:20:05;;;;;;;8.27;6.15;;;;;;;42.44;18.39;94338.38;5065471;28;20366;-67
2021/08/01 08:22:33;;;;;;;9.93;6.55;;;;;;;42.51;18.05;94337.94;5054006;28;20045;-66
2021/08/01 08:25:00;;;;;;;11.15;6.57;;;;;;;42.76;17.75;94326.00;5054149;28;20052;-66
2021/08/01 08:27:27;;;;;;;7.60;6.53;;;;;;;42.74;18.13;94327.75;5069217;28;20048;-66
2021/08/01 08:29:54;;;;;;;9.48;6.90;;;;;;;42.95;17.62;94328.31;5074409;28;20047;-65
2021/08/01 08:32:21;;;;;;;11.30;6.90;;;;;;;43.30;17.88;94327.84;5072843;28;20362;-65
2021/08/01 08:34:48;;;;;;;10.70;6.70;;;;;;;43.23;17.97;94331.84;5076998;28;20319;-67
2021/08/01 08:37:15;;;;;;;8.57;6.40;;;;;;;43.26;17.89;94336.31;5078049;28;20359;-65
2021/08/01 08:39:42;;;;;;;6.47;5.68;;;;;;;43.42;17.66;94317.56;5060542;28;20056;-66
2021/08/01 08:42:13;;;;;;;8.85;6.47;;;;;;;43.15;17.36;94319.81;5077668;28;20048;-67
2021/08/01 08:44:40;;;;;;;11.25;6.85;;;;;;;43.18;17.70;94316.06;5076526;28;20052;-65
2021/08/01 08:47:08;;;;;;;7.35;6.65;;;;;;;43.14;17.91;94310.06;5077631;28;20056;-66
2021/08/01 08:49:37;;;;;;;13.30;7.28;;;;;;;43.33;17.48;94305.59;5078049;28;20447;-62
2021/08/01 08:52:07;;;;;;;8.05;7.25;;;;;;;42.84;17.85;94306.25;5062657;28;20444;-66
2021/08/01 08:54:50;;;;;;;7.43;6.70;;;;;;;43.32;17.84;94309.59;5057866;28;20056;-66
2021/08/01 08:57:24;;;;;;;11.00;7.78;;;;;;;43.39;17.87;94313.84;5057687;28;20044;-66
2021/08/01 09:00:01;;;;;;;8.20;7.25;;;;;;;43.58;17.63;94308.56;5057416;28;20048;-66
2021/08/01 09:02:28;;;;;;;8.63;6.97;;;;;;;43.52;17.58;94311.31;5057354;28;20052;-66
2021/08/01 09:04:57;;;;;;;7.90;6.88;;;;;;;43.57;17.27;94310.56;5056867;28;20048;-65
2021/08/01 09:07:25;;;;;;;8.35;6.70;;;;;;;43.04;17.82;94308.81;5056648;28;20271;-66
2021/08/01 09:09:53;;;;;;;8.27;6.65;;;;;;;43.21;17.63;94308.84;5057500;28;20466;-67
2021/08/01 09:12:20;;;;;;;9.27;6.20;;;;;;;43.23;17.35;94301.56;5055928;28;20045;-67
2021/08/01 09:14:48;;;;;;;7.60;6.38;;;;;;;43.35;17.19;94303.09;5056550;28;20497;-67
2021/08/01 09:17:34;;;;;;;11.23;6.80;;;;;;;43.60;16.77;94306.06;5072547;28;20654;-67
2021/08/01 09:20:40;;;;;;;8.57;6.65;;;;;;;43.80;16.57;94297.53;5076647;28;20059;-66
2021/08/01 09:23:09;;;;;;;10.43;5.95;;;;;;;43.74;16.37;94293.31;5056288;28;20051;-66
2021/08/01 09:25:42;;;;;;;7.43;5.78;;;;;;;43.59;16.31;94299.06;5039915;28;20040;-66
2021/08/01 09:28:25;;;;;;;12.50;6.47;;;;;;;43.52;16.11;94288.56;5056328;28;20055;-67
2021/08/01 09:30:53;;;;;;;6.50;5.80;;;;;;;43.51;16.22;94289.81;5056476;28;20048;-67
2021/08/01 09:33:50;;;;;;;9.68;5.78;;;;;;;43.88;16.39;94287.50;5057020;28;20048;-66
2021/08/01 09:36:20;;;;;;;7.13;6.00;;;;;;;43.94;16.34;94290.97;5055987;28;20048;-67
2021/08/01 09:38:58;;;;;;;7.80;6.10;;;;;;;43.76;16.34;94283.28;5057542;28;20049;-64
2021/08/01 09:41:26;;;;;;;7.88;5.97;;;;;;;43.69;16.10;94265.28;5076906;28;20063;-66
2021/08/01 09:43:56;;;;;;;19.83;6.80;;;;;;;43.66;17.39;94271.75;5092849;28;20040;-61
2021/08/01 09:46:47;;;;;;;15.68;6.97;;;;;;;43.76;17.02;94258.53;5074608;28;20071;-57
2021/08/01 09:49:15;;;;;;;7.93;6.40;;;;;;;43.67;16.67;94267.00;5047176;28;20052;-62
2021/08/01 09:51:45;;;;;;;9.85;6.57;;;;;;;44.06;16.48;94258.66;5076790;28;20477;-59
2021/08/01 09:54:13;;;;;;;10.43;6.78;;;;;;;43.99;16.41;94256.44;5077014;28;20447;-65
2021/08/01 09:57:03;;;;;;;9.20;6.50;;;;;;;44.18;16.53;94248.34;5076233;28;20036;-66
2021/08/01 09:59:32;;;;;;;8.20;6.45;;;;;;;44.65;16.21;94249.09;5060991;28;20053;-79
2021/08/01 10:02:02;;;;;;;6.70;6.00;;;;;;;44.36;16.77;94244.25;5055656;28;20051;-68
2021/08/01 10:04:34;;;;;;;11.18;6.32;;;;;;;44.18;15.96;94231.81;5058752;28;20060;-73
2021/08/01 10:07:04;;;;;;;8.77;7.35;;;;;;;44.30;16.14;94238.78;5067568;28;20045;-72
2021/08/01 10:09:31;;;;;;;10.52;6.63;;;;;;;44.17;15.94;94236.59;5070495;28;20458;-73
2021/08/01 10:11:59;;;;;;;9.43;6.80;;;;;;;44.26;15.79;94230.06;5076906;28;20055;-72
2021/08/01 10:14:27;;;;;;;8.60;6.30;;;;;;;44.26;16.23;94227.31;5073601;28;20040;-72
2021/08/01 10:16:55;;;;;;;9.60;7.25;;;;;;;44.43;16.46;94230.69;5066084;28;20056;-74
2021/08/01 10:19:23;;;;;;;10.88;7.13;;;;;;;44.46;16.42;94218.66;5076504;28;20482;-76
2021/08/01 10:21:53;;;;;;;10.43;6.57;;;;;;;44.36;16.17;94214.72;5076450;28;20447;-76
2021/08/01 10:24:34;;;;;;;8.70;6.32;;;;;;;44.34;16.16;94217.22;5076377;28;20466;-76
2021/08/01 10:27:06;;;;;;;9.95;6.20;;;;;;;44.32;15.94;94222.50;5069373;28;20061;-73
2021/08/01 10:29:54;;;;;;;8.32;6.20;;;;;;;44.35;15.82;94224.22;5063495;28;20347;-74
2021/08/01 10:32:22;;;;;;;10.55;6.70;;;;;;;44.28;16.00;94208.25;5069120;28;20478;-74
2021/08/01 10:34:58;;;;;;;12.60;6.63;;;;;;;44.24;15.55;94210.50;5048312;28;20477;-73
2021/08/01 10:37:31;;;;;;;9.85;6.53;;;;;;;44.12;16.46;94198.06;5053114;28;20044;-74
2021/08/01 10:40:09;;;;;;;8.02;6.50;;;;;;;44.49;15.88;94201.09;5071854;28;20048;-77
2021/08/01 10:42:40;;;;;;;8.57;6.70;;;;;;;44.29;15.60;94207.00;5056618;28;20052;-73
2021/08/01 10:45:08;;;;;;;12.02;6.32;;;;;;;44.18;15.60;94205.03;5067659;28;20057;-64
2021/08/01 10:47:36;;;;;;;10.65;6.63;;;;;;;43.99;15.71;94198.63;5048074;28;20060;-75
2021/08/01 10:50:07;;;;;;;7.72;6.45;;;;;;;44.27;15.55;94190.22;5045255;28;20048;-75
2021/08/01 10:52:35;;;;;;;7.82;7.00;;;;;;;44.25;15.67;94176.97;5045950;28;20040;-75
2021/08/01 10:55:05;;;;;;;10.38;7.28;;;;;;;43.83;15.83;94164.41;5062624;28;20089;-74
2021/08/01 10:57:33;;;;;;;11.57;7.00;;;;;;;44.18;16.18;94152.72;5072989;28;20059;-77
2021/08/01 11:00:04;;;;;;;10.35;7.45;;;;;;;44.12;15.89;94145.75;5074929;28;20063;-75
2021/08/01 11:02:32;;;;;;;10.50;7.10;;;;;;;44.14;15.33;94149.50;5075831;28;20049;-75
2021/08/01 11:05:32;;;;;;;8.20;7.22;;;;;;;44.29;15.66;94140.88;5074596;28;20464;-74
2021/08/01 11:08:00;;;;;;;11.32;6.70;;;;;;;44.36;14.43;94143.09;5069263;28;20522;-75
2021/08/01 11:10:28;;;;;;;9.50;6.28;;;;;;;44.32;14.92;94148.13;5055290;28;20049;-76
2021/08/01 11:12:55;;;;;;;9.80;7.38;;;;;;;44.43;15.36;94150.78;5054925;28;20041;-77
2021/08/01 11:15:46;;;;;;;8.93;6.80;;;;;;;44.31;15.03;94157.66;5054945;28;20044;-78
2021/08/01 11:18:13;;;;;;;7.82;6.60;;;;;;;44.49;14.56;94146.00;5071377;28;20359;-78
2021/08/01 11:20:43;;;;;;;9.60;6.15;;;;;;;44.63;14.73;94148.91;5056704;28;20048;-77
2021/08/01 11:23:10;;;;;;;10.52;6.35;;;;;;;44.71;14.24;94138.81;5071350;28;20044;-73
2021/08/01 11:25:40;;;;;;;5.97;4.70;;;;;;;44.33;12.27;94141.34;5054427;28;20481;-62
2021/08/01 11:28:11;;;;;;;5.65;4.25;;;;;;;44.28;10.39;94125.63;5070087;28;20048;-75
2021/08/01 11:30:54;;;;;;;8.05;4.55;;;;;;;44.50;8.94;94130.97;5066401;28;20052;-75
2021/08/01 11:33:35;;;;;;;5.00;3.63;;;;;;;44.57;9.04;94113.91;5054944;28;20052;-77
2021/08/01 11:36:15;;;;;;;7.65;4.45;;;;;;;44.61;9.38;94119.13;5055093;28;20053;-80
2021/08/01 11:38:48;;;;;;;10.07;4.65;;;;;;;44.75;10.17;94126.25;5053653;28;20053;-65
2021/08/01 11:41:34;;;;;;;6.60;4.38;;;;;;;44.88;9.83;94120.16;5054542;28;20041;-67
2021/08/01 11:44:21;;;;;;;7.53;4.35;;;;;;;44.80;9.87;94102.66;5054360;28;20053;-68
2021/08/01 11:47:04;;;;;;;7.80;4.63;;;;;;;45.05;10.07;94100.69;5054330;28;20056;-72